createdAt,value
2023-05-13T00:01:09.338Z,101392.60
2023-05-13T00:06:11.152Z,101390.80
2023-05-13T00:11:12.981Z,101389.80
2023-05-13T00:16:14.940Z,101392.40
2023-05-13T00:21:16.936Z,101390.20
2023-05-13T00:26:18.817Z,101394.60
2023-05-13T00:31:20.542Z,101396.00
2023-05-13T00:36:22.263Z,101391.20
2023-05-13T00:41:24.145Z,101393.40
2023-05-13T00:46:33.270Z,101388.60
2023-05-13T00:51:36.099Z,101390.00
2023-05-13T00:56:38.676Z,101390.80
2023-05-13T01:02:17.780Z,101392.80
2023-05-13T01:07:28.614Z,101387.40
2023-05-13T01:12:38.272Z,101393.20
2023-05-13T01:18:01.906Z,101392.40
2023-05-13T01:23:04.093Z,101397.60
2023-05-13T01:28:08.482Z,101398.80
2023-05-13T01:33:10.949Z,101394.00
2023-05-13T01:38:15.520Z,101401.20
2023-05-13T01:43:18.004Z,101397.60
2023-05-13T01:48:19.800Z,101396.80
2023-05-13T01:53:21.758Z,101395.60
2023-05-13T01:58:23.544Z,101390.60
2023-05-13T02:03:25.557Z,101394.40
2023-05-13T02:08:27.599Z,101398.40
2023-05-13T02:13:30.408Z,101398.60
2023-05-13T02:18:32.202Z,101408.60
2023-05-13T02:23:34.152Z,101406.00
2023-05-13T02:28:36.442Z,101400.20
2023-05-13T02:33:38.216Z,101402.80
2023-05-13T02:38:40.193Z,101399.00
2023-05-13T02:43:42.171Z,101404.80
2023-05-13T02:48:43.949Z,101397.60
2023-05-13T02:53:45.729Z,101409.80
2023-05-13T02:58:47.514Z,101405.40
2023-05-13T03:03:49.991Z,101405.80
2023-05-13T03:08:51.803Z,101408.80
2023-05-13T03:13:53.552Z,101408.40
2023-05-13T03:18:55.364Z,101408.00
2023-05-13T03:23:57.091Z,101414.40
2023-05-13T03:28:58.772Z,101415.00
2023-05-13T03:34:00.549Z,101409.40
2023-05-13T03:39:02.354Z,101411.80
2023-05-13T03:44:04.510Z,101416.40
2023-05-13T03:49:06.195Z,101416.80
2023-05-13T03:54:07.945Z,101417.00
2023-05-13T03:59:09.619Z,101419.80
2023-05-13T04:04:11.400Z,101418.00
2023-05-13T04:09:13.075Z,101422.40
2023-05-13T04:14:14.845Z,101424.20
2023-05-13T04:19:16.624Z,101424.80
2023-05-13T04:24:18.394Z,101429.40
2023-05-13T04:29:20.199Z,101425.00
2023-05-13T04:34:21.948Z,101433.00
2023-05-13T04:39:23.825Z,101430.60
2023-05-13T04:44:25.806Z,101430.00
2023-05-13T04:49:27.581Z,101428.60
2023-05-13T04:54:30.177Z,101431.60
2023-05-13T04:59:32.460Z,101435.20
2023-05-13T05:04:34.150Z,101435.80
2023-05-13T05:09:36.024Z,101435.20
2023-05-13T05:14:38.113Z,101443.60
2023-05-13T05:19:40.127Z,101435.80
2023-05-13T05:24:42.058Z,101439.20
2023-05-13T05:29:44.065Z,101439.00
2023-05-13T05:34:45.914Z,101440.00
2023-05-13T05:39:47.831Z,101443.80
2023-05-13T05:44:49.470Z,101441.60
2023-05-13T05:49:51.462Z,101443.00
2023-05-13T05:54:53.319Z,101442.20
2023-05-13T05:59:55.318Z,101440.20
2023-05-13T06:04:57.194Z,101441.60
2023-05-13T06:09:58.950Z,101437.00
2023-05-13T06:15:01.357Z,101435.60
2023-05-13T06:20:04.448Z,101434.20
2023-05-13T06:25:06.921Z,101425.00
2023-05-13T06:30:09.165Z,101430.80
2023-05-13T06:35:11.005Z,101422.80
2023-05-13T06:40:13.090Z,101423.60
2023-05-13T06:45:15.175Z,101424.60
2023-05-13T06:50:17.388Z,101431.20
2023-05-13T06:55:19.451Z,101428.60
2023-05-13T07:00:21.844Z,101432.00
2023-05-13T07:05:23.907Z,101429.20
2023-05-13T07:10:25.785Z,101425.40
2023-05-13T07:15:28.580Z,101423.60
2023-05-13T07:20:31.072Z,101419.60
2023-05-13T07:25:33.256Z,101419.80
2023-05-13T07:30:35.077Z,101423.40
2023-05-13T07:35:37.418Z,101417.00
2023-05-13T07:40:39.406Z,101414.80
2023-05-13T07:45:41.876Z,101411.20
2023-05-13T07:50:45.528Z,101407.40
2023-05-13T07:55:47.298Z,101407.80
2023-05-13T08:00:49.680Z,101403.00
2023-05-13T08:05:51.657Z,101406.80
2023-05-13T08:10:53.462Z,101399.20
2023-05-13T08:15:55.338Z,101395.20
2023-05-13T08:20:57.222Z,101399.00
2023-05-13T08:25:59.081Z,101401.20
2023-05-13T08:31:03.095Z,101398.20
2023-05-13T08:36:05.885Z,101398.20
2023-05-13T08:41:08.405Z,101392.60
2023-05-13T08:46:12.426Z,101389.40
2023-05-13T08:51:14.389Z,101392.20
2023-05-13T08:56:16.169Z,101385.20
2023-05-13T09:01:18.196Z,101387.00
2023-05-13T09:06:20.535Z,101383.20
2023-05-13T09:11:22.824Z,101379.20
2023-05-13T09:16:26.483Z,101375.60
2023-05-13T09:21:33.539Z,101371.00
2023-05-13T09:26:36.137Z,101369.00
2023-05-13T09:31:37.976Z,101365.20
2023-05-13T09:36:41.330Z,101363.00
2023-05-13T09:41:43.194Z,101353.20
2023-05-13T09:46:45.032Z,101348.40
2023-05-13T09:51:46.963Z,101349.00
2023-05-13T09:56:48.835Z,101342.20
2023-05-13T10:01:51.084Z,101336.60
2023-05-13T10:06:54.232Z,101339.40
2023-05-13T10:11:58.505Z,101335.00
2023-05-13T10:17:01.452Z,101324.60
2023-05-13T10:22:04.674Z,101326.80
2023-05-13T10:27:07.980Z,101329.00
2023-05-13T10:32:12.139Z,101327.40
2023-05-13T10:38:01.703Z,101331.40
2023-05-13T10:43:22.130Z,101324.00
2023-05-13T10:48:24.271Z,101323.40
2023-05-13T10:53:31.955Z,101316.80
2023-05-13T10:58:38.823Z,101322.40
2023-05-13T11:03:42.013Z,101319.00
2023-05-13T11:08:47.359Z,101314.00
2023-05-13T11:13:59.397Z,101304.40
2023-05-13T11:19:18.987Z,101292.80
2023-05-13T11:24:22.411Z,101305.20
2023-05-13T11:29:35.864Z,101304.00
2023-05-13T11:34:49.197Z,101311.60
2023-05-13T11:39:50.876Z,101306.80
2023-05-13T11:44:54.195Z,101306.20
2023-05-13T11:49:56.873Z,101300.80
2023-05-13T11:54:58.864Z,101307.00
2023-05-13T12:00:06.174Z,101307.80
2023-05-13T12:05:10.750Z,101300.60
2023-05-13T12:10:13.043Z,101301.80
2023-05-13T12:20:24.582Z,101294.40
2023-05-13T12:25:46.461Z,101297.20
2023-05-13T12:30:51.533Z,101297.20
2023-05-13T12:36:17.304Z,101291.20
2023-05-13T12:41:19.295Z,101288.80
2023-05-13T12:46:21.285Z,101288.40
2023-05-13T12:51:24.231Z,101284.80
2023-05-13T12:56:26.203Z,101280.20
2023-05-13T13:01:28.274Z,101270.20
2023-05-13T13:06:32.019Z,101273.00
2023-05-13T13:11:33.791Z,101267.00
2023-05-13T13:16:35.772Z,101259.20
2023-05-13T13:21:37.853Z,101253.40
2023-05-13T13:26:40.354Z,101258.20
2023-05-13T13:31:42.570Z,101259.60
2023-05-13T13:36:44.516Z,101254.20
2023-05-13T13:41:46.906Z,101241.80
2023-05-13T13:46:49.303Z,101243.20
2023-05-13T13:51:52.819Z,101241.00
2023-05-13T13:56:54.889Z,101242.40
2023-05-13T14:01:56.985Z,101250.60
2023-05-13T14:06:59.368Z,101277.60
2023-05-13T14:12:01.268Z,101264.00
2023-05-13T14:17:03.420Z,101253.80
2023-05-13T14:22:05.402Z,101253.20
2023-05-13T14:27:07.280Z,101244.20
2023-05-13T14:32:08.962Z,101239.60
2023-05-13T14:37:11.133Z,101230.60
2023-05-13T14:42:13.132Z,101226.60
2023-05-13T14:47:15.521Z,101221.00
2023-05-13T14:52:17.273Z,101232.40
2023-05-13T14:57:19.571Z,101237.00
2023-05-13T15:02:21.406Z,101235.00
2023-05-13T15:07:23.422Z,101243.40
2023-05-13T15:12:25.929Z,101242.00
2023-05-13T15:17:29.577Z,101241.20
2023-05-13T15:22:33.337Z,101261.40
2023-05-13T15:27:36.211Z,101267.40
2023-05-13T15:32:38.391Z,101268.80
2023-05-13T15:37:42.167Z,101272.80
2023-05-13T15:42:47.838Z,101259.60
2023-05-13T15:47:50.171Z,101262.00
2023-05-13T15:52:54.247Z,101266.00
2023-05-13T15:57:56.019Z,101264.40
2023-05-13T16:02:57.829Z,101248.60
2023-05-13T16:07:59.878Z,101241.40
2023-05-13T16:13:02.169Z,101231.00
2023-05-13T16:18:04.168Z,101233.20
2023-05-13T16:23:06.034Z,101243.40
2023-05-13T16:28:08.107Z,101243.00
2023-05-13T16:33:11.076Z,101239.60
2023-05-13T16:38:13.296Z,101244.60
2023-05-13T16:43:15.378Z,101278.40
2023-05-13T16:48:17.372Z,101270.20
2023-05-13T16:53:21.897Z,101265.80
2023-05-13T16:58:23.774Z,101258.00
2023-05-13T17:03:25.617Z,101255.80
2023-05-13T17:08:27.630Z,101253.60
2023-05-13T17:13:29.922Z,101255.40
2023-05-13T17:18:31.934Z,101252.80
2023-05-13T17:23:33.983Z,101248.60
2023-05-13T17:28:37.701Z,101243.40
2023-05-13T17:33:39.812Z,101250.20
2023-05-13T17:38:41.912Z,101255.40
2023-05-13T17:43:43.756Z,101250.00
2023-05-13T17:48:45.673Z,101249.60
2023-05-13T17:53:48.016Z,101254.80
2023-05-13T17:58:49.786Z,101248.60
2023-05-13T18:03:51.670Z,101249.80
2023-05-13T18:08:53.857Z,101244.20
2023-05-13T18:13:55.834Z,101239.40
2023-05-13T18:18:57.858Z,101239.40
2023-05-13T18:24:00.182Z,101240.20
2023-05-13T18:29:02.521Z,101243.40
2023-05-13T18:34:04.369Z,101256.20
2023-05-13T18:39:07.779Z,101264.00
2023-05-13T18:44:09.655Z,101266.40
2023-05-13T18:49:11.760Z,101265.40
2023-05-13T18:54:13.621Z,101269.60
2023-05-13T18:59:15.902Z,101275.80
2023-05-13T19:04:18.032Z,101273.60
2023-05-13T19:09:21.320Z,101293.20
2023-05-13T19:14:23.214Z,101290.40
2023-05-13T19:19:25.473Z,101291.20
2023-05-13T19:24:27.439Z,101281.80
2023-05-13T19:29:29.314Z,101281.40
2023-05-13T19:34:31.605Z,101283.00
2023-05-13T19:39:33.392Z,101285.40
2023-05-13T19:44:36.176Z,101287.00
2023-05-13T19:49:38.187Z,101285.80
2023-05-13T19:54:40.249Z,101281.20
2023-05-13T19:59:42.039Z,101281.00
2023-05-13T20:04:43.997Z,101282.00
2023-05-13T20:09:46.074Z,101277.60
2023-05-13T20:15:00.038Z,101278.60
2023-05-13T20:20:02.135Z,101273.40
2023-05-13T20:25:05.248Z,101265.00
2023-05-13T20:30:08.488Z,101265.60
2023-05-13T20:35:10.316Z,101262.00
2023-05-13T20:40:12.611Z,101268.20
2023-05-13T20:45:14.591Z,101267.00
2023-05-13T20:50:16.476Z,101262.40
2023-05-13T20:55:20.084Z,101261.20
2023-05-13T21:00:22.461Z,101265.60
2023-05-13T21:05:24.830Z,101269.40
2023-05-13T21:10:27.046Z,101269.60
2023-05-13T21:15:29.549Z,101271.40
2023-05-13T21:20:32.341Z,101266.80
2023-05-13T21:25:34.320Z,101267.00
2023-05-13T21:30:36.295Z,101268.40
2023-05-13T21:35:38.069Z,101269.40
2023-05-13T21:40:40.152Z,101268.60
2023-05-13T21:45:42.239Z,101265.20
2023-05-13T21:50:44.120Z,101269.40
2023-05-13T21:55:45.894Z,101271.80
2023-05-13T22:00:47.908Z,101276.00
2023-05-13T22:05:49.756Z,101273.40
2023-05-13T22:10:51.758Z,101268.80
2023-05-13T22:15:53.958Z,101270.20
2023-05-13T22:20:55.988Z,101265.20
2023-05-13T22:25:57.783Z,101262.20
2023-05-13T22:31:00.263Z,101267.00
2023-05-13T22:36:02.163Z,101260.20
2023-05-13T22:41:04.317Z,101261.80
2023-05-13T22:46:06.122Z,101263.80
2023-05-13T22:51:08.395Z,101264.40
2023-05-13T22:56:10.683Z,101263.20
2023-05-13T23:01:13.048Z,101265.80
2023-05-13T23:06:15.044Z,101262.80
2023-05-13T23:11:17.117Z,101259.60
2023-05-13T23:16:19.498Z,101256.60
2023-05-13T23:21:21.490Z,101259.40
2023-05-13T23:26:24.399Z,101253.80
2023-05-13T23:31:26.967Z,101249.20
2023-05-13T23:36:28.960Z,101242.40
2023-05-13T23:41:30.658Z,101242.20
2023-05-13T23:46:32.430Z,101240.40
2023-05-13T23:51:34.182Z,101231.60
2023-05-13T23:56:35.987Z,101229.00
